sensor_id;sensor_type;location;lat;lon;timestamp;P1;durP1;ratioP1;P2;durP2;ratioP2
12871;SDS011;6504;53.766;9.626;2022-07-06T00:01:40;1.47;;;1.37;;
12871;SDS011;6504;53.766;9.626;2022-07-06T00:04:08;4.60;;;1.60;;
12871;SDS011;6504;53.766;9.626;2022-07-06T00:06:37;3.53;;;1.57;;
12871;SDS011;6504;53.766;9.626;2022-07-06T00:09:06;5.23;;;1.90;;
12871;SDS011;6504;53.766;9.626;2022-07-06T00:11:40;2.07;;;1.10;;
12871;SDS011;6504;53.766;9.626;2022-07-06T00:14:08;5.90;;;1.70;;
12871;SDS011;6504;53.766;9.626;2022-07-06T00:16:36;3.43;;;1.63;;
12871;SDS011;6504;53.766;9.626;2022-07-06T00:19:06;4.73;;;1.40;;
12871;SDS011;6504;53.766;9.626;2022-07-06T00:21:34;2.90;;;1.47;;
12871;SDS011;6504;53.766;9.626;2022-07-06T00:24:08;2.73;;;1.50;;
12871;SDS011;6504;53.766;9.626;2022-07-06T00:26:36;3.70;;;1.50;;
12871;SDS011;6504;53.766;9.626;2022-07-06T00:29:04;2.80;;;1.30;;
12871;SDS011;6504;53.766;9.626;2022-07-06T00:31:35;2.97;;;1.67;;
12871;SDS011;6504;53.766;9.626;2022-07-06T00:34:04;1.97;;;1.37;;
12871;SDS011;6504;53.766;9.626;2022-07-06T00:36:33;4.33;;;1.67;;
12871;SDS011;6504;53.766;9.626;2022-07-06T00:39:04;3.93;;;1.60;;
12871;SDS011;6504;53.766;9.626;2022-07-06T00:41:32;3.83;;;1.70;;
12871;SDS011;6504;53.766;9.626;2022-07-06T00:44:05;3.50;;;1.50;;
12871;SDS011;6504;53.766;9.626;2022-07-06T00:46:36;2.63;;;1.30;;
12871;SDS011;6504;53.766;9.626;2022-07-06T00:49:07;3.50;;;1.40;;
12871;SDS011;6504;53.766;9.626;2022-07-06T00:51:57;4.83;;;1.47;;
12871;SDS011;6504;53.766;9.626;2022-07-06T00:54:26;3.23;;;1.53;;
12871;SDS011;6504;53.766;9.626;2022-07-06T00:56:57;3.70;;;1.53;;
12871;SDS011;6504;53.766;9.626;2022-07-06T00:59:28;3.80;;;1.40;;
12871;SDS011;6504;53.766;9.626;2022-07-06T01:01:56;3.07;;;1.33;;
12871;SDS011;6504;53.766;9.626;2022-07-06T01:04:26;3.13;;;1.40;;
12871;SDS011;6504;53.766;9.626;2022-07-06T01:06:54;1.93;;;1.23;;
12871;SDS011;6504;53.766;9.626;2022-07-06T01:09:25;3.97;;;1.63;;
12871;SDS011;6504;53.766;9.626;2022-07-06T01:11:53;3.80;;;1.53;;
12871;SDS011;6504;53.766;9.626;2022-07-06T01:14:24;3.67;;;1.80;;
12871;SDS011;6504;53.766;9.626;2022-07-06T01:16:53;2.30;;;1.50;;
12871;SDS011;6504;53.766;9.626;2022-07-06T01:19:24;3.57;;;1.33;;
12871;SDS011;6504;53.766;9.626;2022-07-06T01:21:53;4.87;;;1.90;;
12871;SDS011;6504;53.766;9.626;2022-07-06T01:24:22;3.33;;;1.50;;
12871;SDS011;6504;53.766;9.626;2022-07-06T01:26:53;3.03;;;1.40;;
12871;SDS011;6504;53.766;9.626;2022-07-06T01:29:22;1.90;;;1.13;;
12871;SDS011;6504;53.766;9.626;2022-07-06T01:31:53;1.30;;;1.10;;
12871;SDS011;6504;53.766;9.626;2022-07-06T01:34:22;2.80;;;1.20;;
12871;SDS011;6504;53.766;9.626;2022-07-06T01:36:50;3.20;;;1.37;;
12871;SDS011;6504;53.766;9.626;2022-07-06T01:39:19;2.13;;;1.10;;
12871;SDS011;6504;53.766;9.626;2022-07-06T01:41:48;4.03;;;1.57;;
12871;SDS011;6504;53.766;9.626;2022-07-06T01:44:16;1.70;;;1.30;;
12871;SDS011;6504;53.766;9.626;2022-07-06T01:46:44;3.20;;;1.23;;
12871;SDS011;6504;53.766;9.626;2022-07-06T01:49:12;2.87;;;1.30;;
12871;SDS011;6504;53.766;9.626;2022-07-06T01:51:40;6.70;;;1.70;;
12871;SDS011;6504;53.766;9.626;2022-07-06T01:54:08;4.60;;;1.50;;
12871;SDS011;6504;53.766;9.626;2022-07-06T01:56:37;3.00;;;1.30;;
12871;SDS011;6504;53.766;9.626;2022-07-06T01:59:09;3.80;;;1.37;;
12871;SDS011;6504;53.766;9.626;2022-07-06T02:01:37;2.93;;;1.17;;
12871;SDS011;6504;53.766;9.626;2022-07-06T02:04:05;2.20;;;1.43;;
12871;SDS011;6504;53.766;9.626;2022-07-06T02:06:33;3.37;;;1.50;;
12871;SDS011;6504;53.766;9.626;2022-07-06T02:09:01;1.50;;;1.10;;
12871;SDS011;6504;53.766;9.626;2022-07-06T02:11:31;4.67;;;1.20;;
12871;SDS011;6504;53.766;9.626;2022-07-06T02:14:00;2.57;;;0.90;;
12871;SDS011;6504;53.766;9.626;2022-07-06T02:16:28;1.53;;;1.10;;
12871;SDS011;6504;53.766;9.626;2022-07-06T02:18:59;2.37;;;1.10;;
12871;SDS011;6504;53.766;9.626;2022-07-06T02:21:28;2.17;;;1.00;;
12871;SDS011;6504;53.766;9.626;2022-07-06T02:23:57;2.37;;;1.20;;
12871;SDS011;6504;53.766;9.626;2022-07-06T02:26:33;4.53;;;1.70;;
12871;SDS011;6504;53.766;9.626;2022-07-06T02:29:02;5.77;;;1.40;;
12871;SDS011;6504;53.766;9.626;2022-07-06T02:31:33;3.03;;;1.43;;
12871;SDS011;6504;53.766;9.626;2022-07-06T02:34:02;3.27;;;1.40;;
12871;SDS011;6504;53.766;9.626;2022-07-06T02:36:33;2.50;;;1.40;;
12871;SDS011;6504;53.766;9.626;2022-07-06T02:39:01;1.80;;;1.23;;
12871;SDS011;6504;53.766;9.626;2022-07-06T02:41:29;3.53;;;1.50;;
12871;SDS011;6504;53.766;9.626;2022-07-06T02:43:57;5.03;;;1.57;;
12871;SDS011;6504;53.766;9.626;2022-07-06T02:46:26;3.67;;;1.60;;
12871;SDS011;6504;53.766;9.626;2022-07-06T02:48:54;3.27;;;1.50;;
12871;SDS011;6504;53.766;9.626;2022-07-06T02:51:23;2.50;;;1.27;;
12871;SDS011;6504;53.766;9.626;2022-07-06T02:53:51;2.33;;;1.27;;
12871;SDS011;6504;53.766;9.626;2022-07-06T02:56:19;2.20;;;1.20;;
12871;SDS011;6504;53.766;9.626;2022-07-06T02:58:50;2.87;;;1.50;;
12871;SDS011;6504;53.766;9.626;2022-07-06T03:01:18;2.03;;;1.20;;
12871;SDS011;6504;53.766;9.626;2022-07-06T03:03:47;3.10;;;1.30;;
12871;SDS011;6504;53.766;9.626;2022-07-06T03:06:15;3.40;;;1.70;;
12871;SDS011;6504;53.766;9.626;2022-07-06T03:08:43;2.17;;;1.30;;
12871;SDS011;6504;53.766;9.626;2022-07-06T03:11:12;2.53;;;1.43;;
12871;SDS011;6504;53.766;9.626;2022-07-06T03:13:40;3.60;;;1.47;;
12871;SDS011;6504;53.766;9.626;2022-07-06T03:16:09;3.70;;;1.37;;
12871;SDS011;6504;53.766;9.626;2022-07-06T03:18:37;4.13;;;1.50;;
12871;SDS011;6504;53.766;9.626;2022-07-06T03:21:09;3.73;;;1.50;;
12871;SDS011;6504;53.766;9.626;2022-07-06T03:23:37;4.40;;;1.47;;
12871;SDS011;6504;53.766;9.626;2022-07-06T03:26:05;9.13;;;2.40;;
12871;SDS011;6504;53.766;9.626;2022-07-06T03:28:33;7.47;;;2.60;;
12871;SDS011;6504;53.766;9.626;2022-07-06T03:31:02;5.13;;;1.63;;
12871;SDS011;6504;53.766;9.626;2022-07-06T03:33:30;5.23;;;1.80;;
12871;SDS011;6504;53.766;9.626;2022-07-06T03:35:59;4.03;;;1.77;;
12871;SDS011;6504;53.766;9.626;2022-07-06T03:38:28;3.03;;;1.50;;
12871;SDS011;6504;53.766;9.626;2022-07-06T03:40:59;2.47;;;1.30;;
12871;SDS011;6504;53.766;9.626;2022-07-06T03:43:27;5.50;;;1.60;;
12871;SDS011;6504;53.766;9.626;2022-07-06T03:45:55;4.53;;;1.60;;
12871;SDS011;6504;53.766;9.626;2022-07-06T03:48:26;5.20;;;1.83;;
12871;SDS011;6504;53.766;9.626;2022-07-06T03:50:54;4.47;;;1.60;;
12871;SDS011;6504;53.766;9.626;2022-07-06T03:53:23;3.87;;;1.57;;
12871;SDS011;6504;53.766;9.626;2022-07-06T03:55:52;4.20;;;1.83;;
12871;SDS011;6504;53.766;9.626;2022-07-06T03:58:37;6.27;;;1.93;;
12871;SDS011;6504;53.766;9.626;2022-07-06T04:01:08;4.33;;;1.50;;
12871;SDS011;6504;53.766;9.626;2022-07-06T04:03:36;3.73;;;1.50;;
12871;SDS011;6504;53.766;9.626;2022-07-06T04:06:05;4.23;;;1.57;;
12871;SDS011;6504;53.766;9.626;2022-07-06T04:08:36;4.53;;;1.70;;
12871;SDS011;6504;53.766;9.626;2022-07-06T04:11:06;2.90;;;1.20;;
12871;SDS011;6504;53.766;9.626;2022-07-06T04:13:34;3.80;;;1.67;;
12871;SDS011;6504;53.766;9.626;2022-07-06T04:16:05;5.37;;;1.80;;
12871;SDS011;6504;53.766;9.626;2022-07-06T04:18:34;4.00;;;1.50;;
12871;SDS011;6504;53.766;9.626;2022-07-06T04:21:03;3.40;;;1.50;;
12871;SDS011;6504;53.766;9.626;2022-07-06T04:23:31;3.97;;;1.30;;
12871;SDS011;6504;53.766;9.626;2022-07-06T04:25:59;4.87;;;1.50;;
12871;SDS011;6504;53.766;9.626;2022-07-06T04:28:31;2.63;;;1.20;;
12871;SDS011;6504;53.766;9.626;2022-07-06T04:30:59;2.33;;;1.40;;
12871;SDS011;6504;53.766;9.626;2022-07-06T04:33:27;3.47;;;1.43;;
12871;SDS011;6504;53.766;9.626;2022-07-06T04:35:55;4.60;;;1.50;;
12871;SDS011;6504;53.766;9.626;2022-07-06T04:38:24;4.00;;;1.40;;
12871;SDS011;6504;53.766;9.626;2022-07-06T04:40:52;3.40;;;1.23;;
12871;SDS011;6504;53.766;9.626;2022-07-06T04:43:22;4.87;;;1.27;;
12871;SDS011;6504;53.766;9.626;2022-07-06T04:45:52;3.23;;;1.40;;
12871;SDS011;6504;53.766;9.626;2022-07-06T04:48:20;2.57;;;1.27;;
12871;SDS011;6504;53.766;9.626;2022-07-06T04:50:49;7.70;;;1.53;;
12871;SDS011;6504;53.766;9.626;2022-07-06T04:53:17;6.00;;;1.53;;
12871;SDS011;6504;53.766;9.626;2022-07-06T04:55:45;3.00;;;1.40;;
12871;SDS011;6504;53.766;9.626;2022-07-06T04:58:13;8.13;;;1.90;;
12871;SDS011;6504;53.766;9.626;2022-07-06T05:00:43;4.00;;;1.53;;
12871;SDS011;6504;53.766;9.626;2022-07-06T05:03:13;2.83;;;1.30;;
12871;SDS011;6504;53.766;9.626;2022-07-06T05:05:44;3.47;;;1.30;;
12871;SDS011;6504;53.766;9.626;2022-07-06T05:08:12;4.80;;;1.30;;
12871;SDS011;6504;53.766;9.626;2022-07-06T05:10:40;5.03;;;1.30;;
12871;SDS011;6504;53.766;9.626;2022-07-06T05:13:11;3.57;;;1.40;;
12871;SDS011;6504;53.766;9.626;2022-07-06T05:15:39;3.63;;;1.20;;
12871;SDS011;6504;53.766;9.626;2022-07-06T05:18:07;3.23;;;1.30;;
12871;SDS011;6504;53.766;9.626;2022-07-06T05:20:38;3.43;;;1.37;;
12871;SDS011;6504;53.766;9.626;2022-07-06T05:23:06;3.40;;;1.40;;
12871;SDS011;6504;53.766;9.626;2022-07-06T05:25:34;4.83;;;1.40;;
12871;SDS011;6504;53.766;9.626;2022-07-06T05:28:03;5.03;;;1.77;;
12871;SDS011;6504;53.766;9.626;2022-07-06T05:30:31;3.97;;;1.50;;
12871;SDS011;6504;53.766;9.626;2022-07-06T05:32:59;3.60;;;1.23;;
12871;SDS011;6504;53.766;9.626;2022-07-06T05:35:28;4.43;;;1.43;;
12871;SDS011;6504;53.766;9.626;2022-07-06T05:38:17;3.83;;;1.30;;
12871;SDS011;6504;53.766;9.626;2022-07-06T05:40:46;3.93;;;1.43;;
12871;SDS011;6504;53.766;9.626;2022-07-06T05:43:15;1.90;;;1.07;;
12871;SDS011;6504;53.766;9.626;2022-07-06T05:45:43;2.13;;;1.03;;
12871;SDS011;6504;53.766;9.626;2022-07-06T05:48:11;4.50;;;1.27;;
12871;SDS011;6504;53.766;9.626;2022-07-06T05:50:56;3.60;;;1.33;;
12871;SDS011;6504;53.766;9.626;2022-07-06T05:53:26;2.70;;;1.37;;
12871;SDS011;6504;53.766;9.626;2022-07-06T05:55:54;3.27;;;1.27;;
12871;SDS011;6504;53.766;9.626;2022-07-06T05:58:22;4.03;;;1.20;;
12871;SDS011;6504;53.766;9.626;2022-07-06T06:00:58;3.77;;;1.67;;
12871;SDS011;6504;53.766;9.626;2022-07-06T06:03:26;3.03;;;1.20;;
12871;SDS011;6504;53.766;9.626;2022-07-06T06:05:57;4.90;;;1.30;;
12871;SDS011;6504;53.766;9.626;2022-07-06T06:08:26;3.97;;;1.63;;
12871;SDS011;6504;53.766;9.626;2022-07-06T06:10:55;5.07;;;1.90;;
12871;SDS011;6504;53.766;9.626;2022-07-06T06:13:26;3.57;;;1.27;;
12871;SDS011;6504;53.766;9.626;2022-07-06T06:15:54;3.40;;;1.40;;
12871;SDS011;6504;53.766;9.626;2022-07-06T06:18:22;4.40;;;1.67;;
12871;SDS011;6504;53.766;9.626;2022-07-06T06:20:54;4.87;;;1.90;;
12871;SDS011;6504;53.766;9.626;2022-07-06T06:23:23;4.53;;;1.57;;
12871;SDS011;6504;53.766;9.626;2022-07-06T06:25:52;4.53;;;1.50;;
12871;SDS011;6504;53.766;9.626;2022-07-06T06:28:20;8.07;;;2.63;;
12871;SDS011;6504;53.766;9.626;2022-07-06T06:30:52;5.40;;;1.77;;
12871;SDS011;6504;53.766;9.626;2022-07-06T06:33:20;2.67;;;1.17;;
12871;SDS011;6504;53.766;9.626;2022-07-06T06:35:49;3.57;;;1.20;;
12871;SDS011;6504;53.766;9.626;2022-07-06T06:38:21;6.10;;;2.17;;
12871;SDS011;6504;53.766;9.626;2022-07-06T06:40:55;6.93;;;2.50;;
12871;SDS011;6504;53.766;9.626;2022-07-06T06:43:27;11.30;;;3.00;;
12871;SDS011;6504;53.766;9.626;2022-07-06T06:45:55;9.27;;;2.10;;
12871;SDS011;6504;53.766;9.626;2022-07-06T06:48:24;3.10;;;1.20;;
12871;SDS011;6504;53.766;9.626;2022-07-06T06:50:52;3.10;;;1.30;;
12871;SDS011;6504;53.766;9.626;2022-07-06T06:53:20;3.17;;;1.03;;
12871;SDS011;6504;53.766;9.626;2022-07-06T06:55:48;2.60;;;1.47;;
12871;SDS011;6504;53.766;9.626;2022-07-06T06:58:21;2.20;;;1.10;;
12871;SDS011;6504;53.766;9.626;2022-07-06T07:00:49;2.13;;;1.20;;
12871;SDS011;6504;53.766;9.626;2022-07-06T07:03:17;2.27;;;1.10;;
12871;SDS011;6504;53.766;9.626;2022-07-06T07:05:48;14.53;;;3.27;;
12871;SDS011;6504;53.766;9.626;2022-07-06T07:08:16;6.43;;;2.37;;
12871;SDS011;6504;53.766;9.626;2022-07-06T07:10:45;1.90;;;1.23;;
12871;SDS011;6504;53.766;9.626;2022-07-06T07:13:13;9.83;;;2.80;;
12871;SDS011;6504;53.766;9.626;2022-07-06T07:15:42;14.30;;;2.93;;
12871;SDS011;6504;53.766;9.626;2022-07-06T07:18:13;4.80;;;1.80;;
12871;SDS011;6504;53.766;9.626;2022-07-06T07:20:42;3.40;;;1.53;;
12871;SDS011;6504;53.766;9.626;2022-07-06T07:23:10;2.73;;;1.30;;
12871;SDS011;6504;53.766;9.626;2022-07-06T07:25:40;1.53;;;0.93;;
12871;SDS011;6504;53.766;9.626;2022-07-06T07:28:09;2.43;;;1.30;;
12871;SDS011;6504;53.766;9.626;2022-07-06T07:30:40;2.93;;;1.07;;
12871;SDS011;6504;53.766;9.626;2022-07-06T07:33:09;3.20;;;1.20;;
12871;SDS011;6504;53.766;9.626;2022-07-06T07:35:37;2.90;;;1.20;;
12871;SDS011;6504;53.766;9.626;2022-07-06T07:38:08;3.90;;;1.50;;
12871;SDS011;6504;53.766;9.626;2022-07-06T07:40:36;5.70;;;1.30;;
12871;SDS011;6504;53.766;9.626;2022-07-06T07:43:07;2.57;;;1.27;;
12871;SDS011;6504;53.766;9.626;2022-07-06T07:45:35;5.70;;;1.60;;
12871;SDS011;6504;53.766;9.626;2022-07-06T07:48:11;4.63;;;1.30;;
12871;SDS011;6504;53.766;9.626;2022-07-06T07:50:41;3.03;;;1.10;;
12871;SDS011;6504;53.766;9.626;2022-07-06T07:53:10;4.73;;;1.50;;
12871;SDS011;6504;53.766;9.626;2022-07-06T07:55:40;4.23;;;1.30;;
12871;SDS011;6504;53.766;9.626;2022-07-06T07:58:08;3.43;;;1.63;;
12871;SDS011;6504;53.766;9.626;2022-07-06T08:00:36;3.57;;;1.50;;
12871;SDS011;6504;53.766;9.626;2022-07-06T08:03:04;3.07;;;1.30;;
12871;SDS011;6504;53.766;9.626;2022-07-06T08:05:34;3.23;;;1.57;;
12871;SDS011;6504;53.766;9.626;2022-07-06T08:08:05;1.63;;;1.33;;
12871;SDS011;6504;53.766;9.626;2022-07-06T08:10:33;1.83;;;1.23;;
12871;SDS011;6504;53.766;9.626;2022-07-06T08:13:24;1.93;;;1.30;;
12871;SDS011;6504;53.766;9.626;2022-07-06T08:15:53;1.53;;;1.10;;
12871;SDS011;6504;53.766;9.626;2022-07-06T08:18:21;2.13;;;1.33;;
12871;SDS011;6504;53.766;9.626;2022-07-06T08:20:55;2.30;;;1.00;;
12871;SDS011;6504;53.766;9.626;2022-07-06T08:23:43;1.97;;;0.90;;
12871;SDS011;6504;53.766;9.626;2022-07-06T08:26:11;2.23;;;0.97;;
12871;SDS011;6504;53.766;9.626;2022-07-06T08:28:43;3.10;;;1.00;;
12871;SDS011;6504;53.766;9.626;2022-07-06T08:31:12;1.27;;;1.00;;
12871;SDS011;6504;53.766;9.626;2022-07-06T08:34:00;1.00;;;0.90;;
12871;SDS011;6504;53.766;9.626;2022-07-06T08:36:31;3.00;;;1.20;;
12871;SDS011;6504;53.766;9.626;2022-07-06T08:38:59;1.77;;;0.77;;
12871;SDS011;6504;53.766;9.626;2022-07-06T08:41:29;1.67;;;0.90;;
12871;SDS011;6504;53.766;9.626;2022-07-06T08:43:58;3.40;;;1.10;;
12871;SDS011;6504;53.766;9.626;2022-07-06T08:46:26;3.53;;;1.00;;
12871;SDS011;6504;53.766;9.626;2022-07-06T08:48:59;3.00;;;1.10;;
12871;SDS011;6504;53.766;9.626;2022-07-06T08:51:27;3.57;;;1.17;;
12871;SDS011;6504;53.766;9.626;2022-07-06T08:53:57;2.53;;;1.10;;
12871;SDS011;6504;53.766;9.626;2022-07-06T08:56:29;1.43;;;0.80;;
12871;SDS011;6504;53.766;9.626;2022-07-06T08:58:58;2.93;;;0.80;;
12871;SDS011;6504;53.766;9.626;2022-07-06T09:01:35;1.70;;;0.87;;
12871;SDS011;6504;53.766;9.626;2022-07-06T09:04:07;1.57;;;1.00;;
12871;SDS011;6504;53.766;9.626;2022-07-06T09:06:37;1.90;;;0.97;;
12871;SDS011;6504;53.766;9.626;2022-07-06T09:09:15;1.33;;;0.90;;
12871;SDS011;6504;53.766;9.626;2022-07-06T09:11:47;4.67;;;1.03;;
12871;SDS011;6504;53.766;9.626;2022-07-06T09:14:19;1.53;;;0.80;;
12871;SDS011;6504;53.766;9.626;2022-07-06T09:16:51;1.20;;;0.60;;
12871;SDS011;6504;53.766;9.626;2022-07-06T09:19:28;0.97;;;0.73;;
12871;SDS011;6504;53.766;9.626;2022-07-06T09:21:56;3.23;;;0.70;;
12871;SDS011;6504;53.766;9.626;2022-07-06T09:24:28;1.30;;;0.70;;
12871;SDS011;6504;53.766;9.626;2022-07-06T09:26:58;1.90;;;0.63;;
12871;SDS011;6504;53.766;9.626;2022-07-06T09:29:27;1.43;;;0.70;;
12871;SDS011;6504;53.766;9.626;2022-07-06T09:31:56;2.40;;;0.90;;
12871;SDS011;6504;53.766;9.626;2022-07-06T09:34:39;2.20;;;0.80;;
12871;SDS011;6504;53.766;9.626;2022-07-06T09:37:12;2.90;;;1.00;;
12871;SDS011;6504;53.766;9.626;2022-07-06T09:39:43;2.97;;;0.77;;
12871;SDS011;6504;53.766;9.626;2022-07-06T09:42:14;1.83;;;0.70;;
12871;SDS011;6504;53.766;9.626;2022-07-06T09:44:43;3.23;;;0.80;;
12871;SDS011;6504;53.766;9.626;2022-07-06T09:47:14;2.03;;;0.60;;
12871;SDS011;6504;53.766;9.626;2022-07-06T09:49:42;1.50;;;0.80;;
12871;SDS011;6504;53.766;9.626;2022-07-06T09:52:10;2.53;;;0.77;;
12871;SDS011;6504;53.766;9.626;2022-07-06T09:54:39;2.30;;;0.80;;
12871;SDS011;6504;53.766;9.626;2022-07-06T09:57:10;1.60;;;0.70;;
12871;SDS011;6504;53.766;9.626;2022-07-06T09:59:39;2.37;;;0.80;;
12871;SDS011;6504;53.766;9.626;2022-07-06T10:02:07;2.60;;;0.70;;
12871;SDS011;6504;53.766;9.626;2022-07-06T10:04:35;2.00;;;0.87;;
12871;SDS011;6504;53.766;9.626;2022-07-06T10:07:04;2.57;;;0.80;;
12871;SDS011;6504;53.766;9.626;2022-07-06T10:09:36;4.60;;;1.37;;
12871;SDS011;6504;53.766;9.626;2022-07-06T10:12:05;4.07;;;0.93;;
12871;SDS011;6504;53.766;9.626;2022-07-06T10:14:41;3.13;;;1.00;;
12871;SDS011;6504;53.766;9.626;2022-07-06T10:17:17;2.80;;;0.97;;
12871;SDS011;6504;53.766;9.626;2022-07-06T10:19:46;1.90;;;1.07;;
12871;SDS011;6504;53.766;9.626;2022-07-06T10:22:15;4.03;;;1.33;;
12871;SDS011;6504;53.766;9.626;2022-07-06T10:24:44;3.40;;;1.00;;
12871;SDS011;6504;53.766;9.626;2022-07-06T10:27:16;3.00;;;1.27;;
12871;SDS011;6504;53.766;9.626;2022-07-06T10:29:44;2.13;;;1.00;;
12871;SDS011;6504;53.766;9.626;2022-07-06T10:32:12;4.33;;;0.90;;
12871;SDS011;6504;53.766;9.626;2022-07-06T10:34:47;1.80;;;0.87;;
12871;SDS011;6504;53.766;9.626;2022-07-06T10:37:21;2.03;;;0.83;;
12871;SDS011;6504;53.766;9.626;2022-07-06T10:39:51;3.33;;;0.90;;
12871;SDS011;6504;53.766;9.626;2022-07-06T10:42:42;3.13;;;1.13;;
12871;SDS011;6504;53.766;9.626;2022-07-06T10:45:19;2.27;;;0.70;;
12871;SDS011;6504;53.766;9.626;2022-07-06T10:50:46;2.83;;;0.80;;
12871;SDS011;6504;53.766;9.626;2022-07-06T10:53:16;4.70;;;1.00;;
12871;SDS011;6504;53.766;9.626;2022-07-06T10:55:49;3.00;;;0.80;;
12871;SDS011;6504;53.766;9.626;2022-07-06T11:01:09;3.57;;;0.93;;
12871;SDS011;6504;53.766;9.626;2022-07-06T11:03:42;4.70;;;1.10;;
12871;SDS011;6504;53.766;9.626;2022-07-06T11:06:12;2.80;;;0.80;;
12871;SDS011;6504;53.766;9.626;2022-07-06T11:08:47;4.70;;;1.07;;
12871;SDS011;6504;53.766;9.626;2022-07-06T11:11:20;3.37;;;0.70;;
12871;SDS011;6504;53.766;9.626;2022-07-06T11:13:56;1.50;;;0.80;;
12871;SDS011;6504;53.766;9.626;2022-07-06T11:16:31;2.27;;;0.83;;
12871;SDS011;6504;53.766;9.626;2022-07-06T11:19:04;2.87;;;0.73;;
12871;SDS011;6504;53.766;9.626;2022-07-06T11:21:35;2.40;;;0.90;;
12871;SDS011;6504;53.766;9.626;2022-07-06T11:24:08;2.10;;;0.70;;
12871;SDS011;6504;53.766;9.626;2022-07-06T11:26:45;3.80;;;0.90;;
12871;SDS011;6504;53.766;9.626;2022-07-06T11:29:16;3.63;;;0.90;;
12871;SDS011;6504;53.766;9.626;2022-07-06T11:31:49;2.20;;;0.70;;
12871;SDS011;6504;53.766;9.626;2022-07-06T11:34:20;2.60;;;0.70;;
12871;SDS011;6504;53.766;9.626;2022-07-06T11:36:56;1.77;;;0.50;;
12871;SDS011;6504;53.766;9.626;2022-07-06T11:39:32;1.70;;;0.67;;
12871;SDS011;6504;53.766;9.626;2022-07-06T11:42:02;2.30;;;0.70;;
12871;SDS011;6504;53.766;9.626;2022-07-06T11:44:35;2.70;;;0.83;;
12871;SDS011;6504;53.766;9.626;2022-07-06T11:47:04;1.07;;;0.50;;
12871;SDS011;6504;53.766;9.626;2022-07-06T11:49:33;2.40;;;0.70;;
12871;SDS011;6504;53.766;9.626;2022-07-06T11:52:08;4.03;;;1.00;;
12871;SDS011;6504;53.766;9.626;2022-07-06T11:54:37;2.77;;;0.70;;
12871;SDS011;6504;53.766;9.626;2022-07-06T11:57:10;2.27;;;0.70;;
12871;SDS011;6504;53.766;9.626;2022-07-06T11:59:41;2.57;;;0.70;;
12871;SDS011;6504;53.766;9.626;2022-07-06T12:02:15;1.10;;;0.60;;
12871;SDS011;6504;53.766;9.626;2022-07-06T12:04:46;1.80;;;0.80;;
12871;SDS011;6504;53.766;9.626;2022-07-06T12:07:17;1.70;;;0.73;;
12871;SDS011;6504;53.766;9.626;2022-07-06T12:09:48;2.80;;;0.80;;
12871;SDS011;6504;53.766;9.626;2022-07-06T12:12:16;3.60;;;0.80;;
12871;SDS011;6504;53.766;9.626;2022-07-06T12:14:46;2.40;;;0.80;;
12871;SDS011;6504;53.766;9.626;2022-07-06T12:17:19;1.40;;;0.80;;
12871;SDS011;6504;53.766;9.626;2022-07-06T12:19:52;2.70;;;0.87;;
12871;SDS011;6504;53.766;9.626;2022-07-06T12:22:26;2.60;;;0.70;;
12871;SDS011;6504;53.766;9.626;2022-07-06T12:24:54;2.17;;;0.73;;
12871;SDS011;6504;53.766;9.626;2022-07-06T12:27:25;2.27;;;0.70;;
12871;SDS011;6504;53.766;9.626;2022-07-06T12:30:04;1.33;;;0.50;;
12871;SDS011;6504;53.766;9.626;2022-07-06T12:32:37;1.73;;;0.60;;
12871;SDS011;6504;53.766;9.626;2022-07-06T12:35:05;1.53;;;0.73;;
12871;SDS011;6504;53.766;9.626;2022-07-06T12:37:40;2.33;;;1.00;;
12871;SDS011;6504;53.766;9.626;2022-07-06T12:40:25;2.67;;;0.90;;
12871;SDS011;6504;53.766;9.626;2022-07-06T12:42:54;2.37;;;0.70;;
12871;SDS011;6504;53.766;9.626;2022-07-06T12:45:27;1.90;;;0.63;;
12871;SDS011;6504;53.766;9.626;2022-07-06T12:47:59;2.57;;;0.70;;
12871;SDS011;6504;53.766;9.626;2022-07-06T12:50:32;3.80;;;1.00;;
12871;SDS011;6504;53.766;9.626;2022-07-06T12:53:01;2.27;;;0.60;;
12871;SDS011;6504;53.766;9.626;2022-07-06T12:55:32;4.40;;;0.67;;
12871;SDS011;6504;53.766;9.626;2022-07-06T12:58:00;2.17;;;0.70;;
12871;SDS011;6504;53.766;9.626;2022-07-06T13:00:33;3.07;;;0.80;;
12871;SDS011;6504;53.766;9.626;2022-07-06T13:03:12;2.10;;;0.70;;
12871;SDS011;6504;53.766;9.626;2022-07-06T13:05:48;3.03;;;1.00;;
12871;SDS011;6504;53.766;9.626;2022-07-06T13:08:17;1.67;;;0.73;;
12871;SDS011;6504;53.766;9.626;2022-07-06T13:10:45;2.63;;;0.70;;
12871;SDS011;6504;53.766;9.626;2022-07-06T13:13:13;1.17;;;0.53;;
12871;SDS011;6504;53.766;9.626;2022-07-06T13:15:45;3.77;;;0.80;;
12871;SDS011;6504;53.766;9.626;2022-07-06T13:18:13;3.07;;;0.80;;
12871;SDS011;6504;53.766;9.626;2022-07-06T13:20:44;1.77;;;0.80;;
12871;SDS011;6504;53.766;9.626;2022-07-06T13:23:12;1.53;;;0.63;;
12871;SDS011;6504;53.766;9.626;2022-07-06T13:25:40;4.17;;;0.87;;
12871;SDS011;6504;53.766;9.626;2022-07-06T13:28:11;1.60;;;0.60;;
12871;SDS011;6504;53.766;9.626;2022-07-06T13:30:39;2.57;;;0.90;;
12871;SDS011;6504;53.766;9.626;2022-07-06T13:33:08;2.60;;;0.80;;
12871;SDS011;6504;53.766;9.626;2022-07-06T13:35:36;4.00;;;1.00;;
12871;SDS011;6504;53.766;9.626;2022-07-06T13:38:05;4.33;;;0.80;;
12871;SDS011;6504;53.766;9.626;2022-07-06T13:40:40;1.80;;;0.70;;
12871;SDS011;6504;53.766;9.626;2022-07-06T13:43:08;4.13;;;0.73;;
12871;SDS011;6504;53.766;9.626;2022-07-06T13:45:39;2.57;;;0.60;;
12871;SDS011;6504;53.766;9.626;2022-07-06T13:48:09;1.30;;;0.60;;
12871;SDS011;6504;53.766;9.626;2022-07-06T13:50:37;2.43;;;0.70;;
12871;SDS011;6504;53.766;9.626;2022-07-06T13:53:08;5.10;;;0.90;;
12871;SDS011;6504;53.766;9.626;2022-07-06T13:55:36;3.20;;;0.90;;
12871;SDS011;6504;53.766;9.626;2022-07-06T13:58:04;3.20;;;0.87;;
12871;SDS011;6504;53.766;9.626;2022-07-06T14:00:33;2.13;;;0.87;;
12871;SDS011;6504;53.766;9.626;2022-07-06T14:03:01;1.93;;;0.60;;
12871;SDS011;6504;53.766;9.626;2022-07-06T14:05:37;2.43;;;0.80;;
12871;SDS011;6504;53.766;9.626;2022-07-06T14:08:05;1.10;;;0.60;;
12871;SDS011;6504;53.766;9.626;2022-07-06T14:10:33;3.93;;;0.87;;
12871;SDS011;6504;53.766;9.626;2022-07-06T14:13:01;3.00;;;0.70;;
12871;SDS011;6504;53.766;9.626;2022-07-06T14:15:29;2.00;;;0.83;;
12871;SDS011;6504;53.766;9.626;2022-07-06T14:17:59;4.10;;;0.90;;
12871;SDS011;6504;53.766;9.626;2022-07-06T14:20:28;2.87;;;0.90;;
12871;SDS011;6504;53.766;9.626;2022-07-06T14:22:57;1.97;;;0.80;;
12871;SDS011;6504;53.766;9.626;2022-07-06T14:25:28;2.60;;;1.00;;
12871;SDS011;6504;53.766;9.626;2022-07-06T14:27:56;2.27;;;0.83;;
12871;SDS011;6504;53.766;9.626;2022-07-06T14:30:24;5.03;;;0.87;;
12871;SDS011;6504;53.766;9.626;2022-07-06T14:32:55;3.33;;;1.07;;
12871;SDS011;6504;53.766;9.626;2022-07-06T14:35:23;4.57;;;1.30;;
12871;SDS011;6504;53.766;9.626;2022-07-06T14:37:54;2.73;;;1.00;;
12871;SDS011;6504;53.766;9.626;2022-07-06T14:40:23;4.07;;;1.00;;
12871;SDS011;6504;53.766;9.626;2022-07-06T14:42:54;2.50;;;0.90;;
12871;SDS011;6504;53.766;9.626;2022-07-06T14:45:22;2.47;;;1.00;;
12871;SDS011;6504;53.766;9.626;2022-07-06T14:47:54;2.73;;;1.00;;
12871;SDS011;6504;53.766;9.626;2022-07-06T14:50:22;2.87;;;0.83;;
12871;SDS011;6504;53.766;9.626;2022-07-06T14:52:50;3.67;;;0.87;;
12871;SDS011;6504;53.766;9.626;2022-07-06T14:55:21;4.50;;;1.30;;
12871;SDS011;6504;53.766;9.626;2022-07-06T14:57:51;2.80;;;1.20;;
12871;SDS011;6504;53.766;9.626;2022-07-06T15:00:21;3.63;;;1.10;;
12871;SDS011;6504;53.766;9.626;2022-07-06T15:02:49;1.73;;;1.10;;
12871;SDS011;6504;53.766;9.626;2022-07-06T15:05:17;2.87;;;0.83;;
12871;SDS011;6504;53.766;9.626;2022-07-06T15:07:45;1.57;;;0.80;;
12871;SDS011;6504;53.766;9.626;2022-07-06T15:10:20;4.00;;;1.10;;
12871;SDS011;6504;53.766;9.626;2022-07-06T15:12:53;3.43;;;1.00;;
12871;SDS011;6504;53.766;9.626;2022-07-06T15:15:21;1.97;;;0.80;;
12871;SDS011;6504;53.766;9.626;2022-07-06T15:18:09;2.50;;;0.80;;
12871;SDS011;6504;53.766;9.626;2022-07-06T15:20:40;2.93;;;0.90;;
12871;SDS011;6504;53.766;9.626;2022-07-06T15:23:08;1.97;;;0.90;;
12871;SDS011;6504;53.766;9.626;2022-07-06T15:25:36;2.13;;;1.00;;